Airport ID:1G3
Update Time (UTC):23/04/2024 08:36
Wind Speed (Knots):7
Wind Direction (Magnetic):200
Temperature (°C):8
Dew Point (°C):-3
Humidity (%):45
Altimeter (inHg):30.04
Density Altitude (Feet):
Visibility:10+
Clouds (Hundreds of feet):***
Present Weather:
METAR:METAR 1G3 230835Z AUTO 19007KT 10SM 08/M03 A3004 RMK A01

The data displayed is for advisory purposes only and is not to be used for flight planning or operations.